createdAt,value
2023-04-09T00:01:57.143Z,101266.13
2023-04-09T00:04:27.489Z,101265.27
2023-04-09T00:07:09.553Z,101261.43
2023-04-09T00:09:41.648Z,101263.86
2023-04-09T00:12:17.491Z,101263.81
2023-04-09T00:14:58.693Z,101261.02
2023-04-09T00:17:35.675Z,101257.86
2023-04-09T00:20:10.143Z,101258.52
2023-04-09T00:22:44.791Z,101260.20
2023-04-09T00:25:17.485Z,101262.58
2023-04-09T00:27:52.530Z,101267.58
2023-04-09T00:30:34.401Z,101267.25
2023-04-09T00:33:15.265Z,101266.27
2023-04-09T00:35:45.839Z,101268.59
2023-04-09T00:38:16.329Z,101271.58
2023-04-09T00:40:58.182Z,101269.69
2023-04-09T00:43:30.772Z,101269.70
2023-04-09T00:46:02.074Z,101269.35
2023-04-09T00:48:33.216Z,101268.14
2023-04-09T00:51:10.775Z,101267.40
2023-04-09T00:53:44.288Z,101265.84
2023-04-09T00:56:17.026Z,101259.89
2023-04-09T00:58:52.812Z,101257.61
2023-04-09T01:01:25.656Z,101258.98
2023-04-09T01:04:09.053Z,101262.44
2023-04-09T01:07:00.097Z,101264.86
2023-04-09T01:09:43.699Z,101266.25
2023-04-09T01:12:57.672Z,101266.59
2023-04-09T01:15:37.708Z,101268.88
2023-04-09T01:18:24.088Z,101276.20
2023-04-09T01:21:23.277Z,101281.59
2023-04-09T01:24:23.460Z,101280.74
2023-04-09T01:27:08.489Z,101283.37
2023-04-09T01:29:58.151Z,101282.54
2023-04-09T01:32:27.681Z,101284.13
2023-04-09T01:35:01.325Z,101284.80
2023-04-09T01:37:30.966Z,101288.09
2023-04-09T01:40:00.617Z,101287.73
2023-04-09T01:42:30.784Z,101292.40
2023-04-09T01:45:03.071Z,101290.14
2023-04-09T01:47:35.055Z,101284.57
2023-04-09T01:50:04.575Z,101282.84
2023-04-09T01:52:34.369Z,101279.87
2023-04-09T01:55:04.247Z,101283.02
2023-04-09T01:57:36.458Z,101285.45
2023-04-09T02:00:07.576Z,101284.05
2023-04-09T02:03:39.751Z,101283.27
2023-04-09T02:06:27.676Z,101281.42
2023-04-09T02:09:02.179Z,101282.98
2023-04-09T02:11:40.502Z,101288.02
2023-04-09T02:14:13.126Z,101285.42
2023-04-09T02:16:43.907Z,101284.02
2023-04-09T02:19:19.423Z,101280.89
2023-04-09T02:21:53.704Z,101275.16
2023-04-09T02:24:27.404Z,101273.95
2023-04-09T02:27:07.549Z,101273.98
2023-04-09T02:29:48.872Z,101274.18
2023-04-09T02:32:33.686Z,101272.98
2023-04-09T02:35:18.174Z,101271.95
2023-04-09T02:37:57.811Z,101273.19
2023-04-09T02:40:30.645Z,101271.11
2023-04-09T02:43:09.161Z,101268.70
2023-04-09T02:46:17.329Z,101261.59
2023-04-09T02:48:59.656Z,101261.77
2023-04-09T02:51:38.216Z,101257.25
2023-04-09T02:54:20.805Z,101252.23
2023-04-09T02:56:56.617Z,101249.78
2023-04-09T02:59:33.166Z,101248.90
2023-04-09T03:02:09.557Z,101245.79
2023-04-09T03:04:48.446Z,101243.52
2023-04-09T03:07:28.996Z,101243.19
2023-04-09T03:10:04.645Z,101243.52
2023-04-09T03:12:34.853Z,101238.48
2023-04-09T03:15:06.295Z,101236.73
2023-04-09T03:17:41.328Z,101233.24
2023-04-09T03:20:19.302Z,101230.63
2023-04-09T03:22:51.450Z,101234.63
2023-04-09T03:25:38.881Z,101229.77
2023-04-09T03:28:23.797Z,101225.44
2023-04-09T03:31:01.773Z,101225.98
2023-04-09T03:33:40.926Z,101223.05
2023-04-09T03:36:18.372Z,101214.73
2023-04-09T03:39:35.291Z,101216.48
2023-04-09T03:42:20.731Z,101214.09
2023-04-09T03:44:58.484Z,101214.78
2023-04-09T03:47:43.211Z,101210.45
2023-04-09T03:50:21.827Z,101212.37
2023-04-09T03:52:57.815Z,101211.66
2023-04-09T03:55:33.357Z,101208.88
2023-04-09T03:58:19.273Z,101207.66
2023-04-09T04:01:02.622Z,101204.52
2023-04-09T04:03:52.032Z,101202.11
2023-04-09T04:06:32.143Z,101201.92
2023-04-09T04:09:29.936Z,101202.98
2023-04-09T04:12:15.870Z,101203.51
2023-04-09T04:15:21.078Z,101203.55
2023-04-09T04:18:00.963Z,101200.27
2023-04-09T04:20:49.629Z,101202.52
2023-04-09T04:23:32.369Z,101202.17
2023-04-09T04:26:12.299Z,101199.26
2023-04-09T04:29:02.896Z,101202.22
2023-04-09T04:31:59.502Z,101201.38
2023-04-09T04:34:34.040Z,101201.19
2023-04-09T04:37:20.881Z,101202.71
2023-04-09T04:40:04.433Z,101200.95
2023-04-09T04:42:36.581Z,101203.02
2023-04-09T04:45:15.293Z,101196.46
2023-04-09T04:47:54.691Z,101200.45
2023-04-09T04:50:30.815Z,101199.27
2023-04-09T04:53:18.559Z,101199.49
2023-04-09T04:55:54.027Z,101198.14
2023-04-09T04:58:31.181Z,101196.75
2023-04-09T05:01:05.324Z,101198.83
2023-04-09T05:03:41.246Z,101198.64
2023-04-09T05:06:34.902Z,101203.88
2023-04-09T05:09:08.629Z,101204.27
2023-04-09T05:11:46.631Z,101202.20
2023-04-09T05:14:24.508Z,101203.77
2023-04-09T05:17:18.092Z,101202.04
2023-04-09T05:20:07.680Z,101205.66
2023-04-09T05:22:46.638Z,101205.16
2023-04-09T05:25:16.972Z,101200.80
2023-04-09T05:27:47.543Z,101200.77
2023-04-09T05:30:20.151Z,101199.73
2023-04-09T05:32:54.961Z,101198.84
2023-04-09T05:35:33.616Z,101198.29
2023-04-09T05:38:14.032Z,101199.11
2023-04-09T05:40:55.921Z,101196.82
2023-04-09T05:43:26.122Z,101197.64
2023-04-09T05:45:58.894Z,101198.27
2023-04-09T05:48:35.407Z,101200.89
2023-04-09T05:51:06.903Z,101203.63
2023-04-09T05:53:44.990Z,101206.02
2023-04-09T05:56:16.598Z,101209.98
2023-04-09T05:58:57.617Z,101211.15
2023-04-09T06:01:37.992Z,101212.17
2023-04-09T06:04:17.543Z,101216.34
2023-04-09T06:07:01.007Z,101218.61
2023-04-09T06:09:39.066Z,101220.01
2023-04-09T06:12:20.298Z,101220.44
2023-04-09T06:14:56.331Z,101227.78
2023-04-09T06:17:35.619Z,101229.73
2023-04-09T06:20:09.863Z,101232.55
2023-04-09T06:22:39.720Z,101234.98
2023-04-09T06:25:09.045Z,101236.70
2023-04-09T06:27:39.858Z,101239.30
2023-04-09T06:30:26.134Z,101237.89
2023-04-09T06:33:08.203Z,101240.85
2023-04-09T06:35:41.547Z,101241.04
2023-04-09T06:38:13.984Z,101246.94
2023-04-09T06:40:50.168Z,101251.25
2023-04-09T06:43:25.073Z,101254.73
2023-04-09T06:45:56.012Z,101257.34
2023-04-09T06:48:25.628Z,101261.10
2023-04-09T06:50:58.503Z,101267.49
2023-04-09T06:53:30.820Z,101268.16
2023-04-09T06:56:00.695Z,101269.54
2023-04-09T06:58:32.044Z,101270.89
2023-04-09T07:01:08.631Z,101277.46
2023-04-09T07:03:51.166Z,101280.42
2023-04-09T07:06:29.943Z,101276.95
2023-04-09T07:08:59.420Z,101276.08
2023-04-09T07:11:28.765Z,101275.36
2023-04-09T07:14:02.714Z,101269.97
2023-04-09T07:16:32.076Z,101274.45
2023-04-09T07:19:01.419Z,101273.73
2023-04-09T07:21:30.588Z,101276.85
2023-04-09T07:24:00.137Z,101279.30
2023-04-09T07:26:30.401Z,101280.02
2023-04-09T07:28:59.759Z,101285.06
2023-04-09T07:31:29.061Z,101284.17
2023-04-09T07:33:58.242Z,101281.73
2023-04-09T07:36:29.986Z,101283.30
2023-04-09T07:39:00.150Z,101283.14
2023-04-09T07:41:29.364Z,101281.89
2023-04-09T07:43:59.360Z,101278.24
2023-04-09T07:46:28.601Z,101280.34
2023-04-09T07:48:57.981Z,101281.20
2023-04-09T07:51:27.912Z,101280.34
2023-04-09T07:53:57.167Z,101278.77
2023-04-09T07:56:26.680Z,101276.33
2023-04-09T07:58:59.344Z,101274.01
2023-04-09T08:01:34.241Z,101271.73
2023-04-09T08:04:08.610Z,101271.88
2023-04-09T08:06:54.223Z,101270.27
2023-04-09T08:09:24.879Z,101271.80
2023-04-09T08:12:02.772Z,101267.75
2023-04-09T08:14:38.624Z,101268.75
2023-04-09T08:17:11.885Z,101267.30
2023-04-09T08:19:45.058Z,101263.32
2023-04-09T08:22:32.427Z,101260.00
2023-04-09T08:25:14.656Z,101259.09
2023-04-09T08:27:47.941Z,101262.67
2023-04-09T08:30:22.976Z,101263.63
2023-04-09T08:35:54.512Z,101265.50
2023-04-09T08:38:37.487Z,101264.32
2023-04-09T08:41:29.577Z,101267.16
2023-04-09T08:44:26.579Z,101268.11
2023-04-09T08:47:50.207Z,101273.48
2023-04-09T08:50:25.710Z,101275.06
2023-04-09T08:53:14.453Z,101275.09
2023-04-09T08:56:00.909Z,101281.98
2023-04-09T08:58:37.345Z,101285.27
2023-04-09T09:01:35.265Z,101285.93
2023-04-09T09:04:20.496Z,101286.98
2023-04-09T09:06:55.421Z,101285.58
2023-04-09T09:09:31.265Z,101281.89
2023-04-09T09:12:03.977Z,101275.37
2023-04-09T09:14:36.006Z,101269.65
2023-04-09T09:17:17.272Z,101266.13
2023-04-09T09:19:54.362Z,101267.88
2023-04-09T09:23:02.920Z,101278.56
2023-04-09T09:25:43.928Z,101282.02
2023-04-09T09:28:20.293Z,101282.15
2023-04-09T09:30:59.998Z,101286.17
2023-04-09T09:33:41.146Z,101287.52
2023-04-09T09:36:22.862Z,101287.60
2023-04-09T09:39:10.563Z,101285.22
2023-04-09T09:41:49.034Z,101281.11
2023-04-09T09:44:51.236Z,101280.80
2023-04-09T09:47:29.639Z,101278.36
2023-04-09T09:50:07.494Z,101280.73
2023-04-09T09:52:51.996Z,101280.20
2023-04-09T09:55:33.541Z,101277.56
2023-04-09T09:58:26.438Z,101278.49
2023-04-09T10:00:59.914Z,101274.34
2023-04-09T10:03:39.126Z,101272.76
2023-04-09T10:06:20.571Z,101275.63
2023-04-09T10:09:09.473Z,101276.28
2023-04-09T10:11:50.082Z,101276.77
2023-04-09T10:14:30.023Z,101280.70
2023-04-09T10:17:15.734Z,101278.14
2023-04-09T10:20:21.665Z,101277.02
2023-04-09T10:22:56.922Z,101274.59
2023-04-09T10:25:34.942Z,101272.80
2023-04-09T10:28:22.326Z,101275.95
2023-04-09T10:31:01.193Z,101274.90
2023-04-09T10:33:46.508Z,101277.44
2023-04-09T10:36:25.155Z,101274.46
2023-04-09T10:38:59.982Z,101275.20
2023-04-09T10:41:58.696Z,101276.63
2023-04-09T10:45:06.332Z,101275.71
2023-04-09T10:47:46.578Z,101274.98
2023-04-09T10:50:43.034Z,101278.15
2023-04-09T10:53:42.457Z,101278.98
2023-04-09T10:56:32.736Z,101274.92
2023-04-09T10:59:31.278Z,101277.40
2023-04-09T11:02:39.074Z,101274.88
2023-04-09T11:05:35.197Z,101269.05
2023-04-09T11:08:15.506Z,101271.19
2023-04-09T11:11:02.196Z,101275.58
2023-04-09T11:13:36.519Z,101275.65
2023-04-09T11:16:07.536Z,101275.16
2023-04-09T11:18:42.273Z,101273.10
2023-04-09T11:21:21.720Z,101273.91
2023-04-09T11:24:03.003Z,101274.43
2023-04-09T11:26:46.934Z,101275.70
2023-04-09T11:29:26.195Z,101275.81
2023-04-09T11:32:10.387Z,101274.30
2023-04-09T11:34:57.778Z,101273.09
2023-04-09T11:37:43.484Z,101271.20
2023-04-09T11:40:39.720Z,101271.08
2023-04-09T11:43:46.309Z,101272.26
2023-04-09T11:46:21.911Z,101273.51
2023-04-09T11:49:15.391Z,101274.40
2023-04-09T11:51:58.520Z,101279.24
2023-04-09T11:54:35.794Z,101279.73
2023-04-09T11:57:11.313Z,101278.42
2023-04-09T11:59:54.456Z,101277.73
2023-04-09T12:02:26.287Z,101278.05
2023-04-09T12:05:14.934Z,101278.27
2023-04-09T12:07:56.735Z,101279.29
2023-04-09T12:10:47.447Z,101277.42
2023-04-09T12:13:34.407Z,101278.97
2023-04-09T12:16:25.259Z,101281.42
2023-04-09T12:19:09.910Z,101282.61
2023-04-09T12:21:58.563Z,101281.66
2023-04-09T12:24:34.558Z,101283.21
2023-04-09T12:27:25.775Z,101285.09
2023-04-09T12:30:04.784Z,101285.77
2023-04-09T12:32:51.539Z,101284.52
2023-04-09T12:35:28.627Z,101285.58
2023-04-09T12:38:05.090Z,101284.66
2023-04-09T12:40:43.322Z,101286.33
2023-04-09T12:43:20.001Z,101287.13
2023-04-09T12:46:01.655Z,101285.73
2023-04-09T12:48:37.175Z,101289.08
2023-04-09T12:51:25.600Z,101290.94
2023-04-09T12:54:15.294Z,101287.19
2023-04-09T12:57:06.044Z,101283.52
2023-04-09T12:59:48.393Z,101281.98
2023-04-09T13:02:35.495Z,101282.17
2023-04-09T13:05:23.263Z,101285.84
2023-04-09T13:07:53.498Z,101287.13
2023-04-09T13:10:26.108Z,101285.34
2023-04-09T13:13:00.986Z,101285.98
2023-04-09T13:15:48.199Z,101285.31
2023-04-09T13:18:22.657Z,101286.27
2023-04-09T13:21:11.706Z,101283.65
2023-04-09T13:23:47.538Z,101283.83
2023-04-09T13:26:23.028Z,101281.67
2023-04-09T13:28:57.058Z,101276.13
2023-04-09T13:31:43.561Z,101278.02
2023-04-09T13:34:31.383Z,101279.27
2023-04-09T13:37:15.928Z,101279.58
2023-04-09T13:39:47.432Z,101273.86
2023-04-09T13:42:20.500Z,101274.02
2023-04-09T13:45:00.851Z,101272.10
2023-04-09T13:47:45.864Z,101274.40
2023-04-09T13:50:28.837Z,101276.60
2023-04-09T13:53:23.746Z,101274.44
2023-04-09T13:55:56.772Z,101269.95
2023-04-09T13:58:37.515Z,101272.94
2023-04-09T14:01:31.014Z,101273.20
2023-04-09T14:04:37.655Z,101269.48
2023-04-09T14:07:18.553Z,101266.10
2023-04-09T14:09:56.677Z,101262.84
2023-04-09T14:12:34.520Z,101260.13
2023-04-09T14:15:09.541Z,101262.93
2023-04-09T14:17:41.066Z,101259.42
2023-04-09T14:20:21.036Z,101258.75
2023-04-09T14:22:56.284Z,101260.77
2023-04-09T14:25:38.020Z,101256.59
2023-04-09T14:28:29.226Z,101254.70
2023-04-09T14:31:08.187Z,101256.59
2023-04-09T14:33:59.083Z,101252.50
2023-04-09T14:37:07.548Z,101252.71
2023-04-09T14:40:13.514Z,101251.68
2023-04-09T14:42:45.384Z,101249.20
2023-04-09T14:45:37.911Z,101248.45
2023-04-09T14:48:16.699Z,101246.73
2023-04-09T14:50:57.898Z,101244.73
2023-04-09T14:53:42.759Z,101240.92
2023-04-09T14:56:24.056Z,101239.38
2023-04-09T14:59:00.656Z,101236.08
2023-04-09T15:01:34.798Z,101234.29
2023-04-09T15:04:24.648Z,101239.23
2023-04-09T15:07:19.389Z,101246.54
2023-04-09T15:10:00.651Z,101252.47
2023-04-09T15:12:37.728Z,101251.58
2023-04-09T15:15:14.621Z,101251.64
2023-04-09T15:17:51.195Z,101248.02
2023-04-09T15:20:26.534Z,101251.42
2023-04-09T15:22:59.837Z,101253.30
2023-04-09T15:25:41.760Z,101249.29
2023-04-09T15:28:18.902Z,101249.09
2023-04-09T15:30:59.125Z,101250.85
2023-04-09T15:33:42.889Z,101247.52
2023-04-09T15:36:24.025Z,101243.98
2023-04-09T15:39:18.639Z,101243.89
2023-04-09T15:42:19.331Z,101245.25
2023-04-09T15:45:16.906Z,101244.55
2023-04-09T15:48:05.726Z,101244.77
2023-04-09T15:51:08.857Z,101241.58
2023-04-09T15:54:08.277Z,101237.46
2023-04-09T15:56:57.636Z,101236.16
2023-04-09T15:59:58.007Z,101234.80
2023-04-09T16:02:59.119Z,101236.70
2023-04-09T16:05:46.648Z,101235.77
2023-04-09T16:08:44.309Z,101238.21
2023-04-09T16:11:39.018Z,101241.55
2023-04-09T16:14:26.950Z,101240.40
2023-04-09T16:17:22.132Z,101240.06
2023-04-09T16:20:09.002Z,101241.56
2023-04-09T16:22:48.489Z,101239.92
2023-04-09T16:25:40.252Z,101243.65
2023-04-09T16:31:18.513Z,101244.38
2023-04-09T16:34:05.796Z,101245.34
2023-04-09T16:36:44.834Z,101245.61
2023-04-09T16:39:21.708Z,101244.11
2023-04-09T16:42:21.649Z,101250.08
2023-04-09T16:45:05.963Z,101254.38
2023-04-09T16:47:57.579Z,101255.88
2023-04-09T16:50:43.105Z,101254.42
2023-04-09T16:53:20.621Z,101254.17
2023-04-09T16:56:02.331Z,101255.98
2023-04-09T16:59:10.421Z,101261.26
2023-04-09T17:01:42.885Z,101261.63
2023-04-09T17:04:18.471Z,101263.87
2023-04-09T17:06:49.193Z,101267.11
2023-04-09T17:09:19.742Z,101268.27
2023-04-09T17:12:01.423Z,101268.75
2023-04-09T17:14:43.281Z,101270.48
2023-04-09T17:17:24.323Z,101273.09
2023-04-09T17:20:01.605Z,101276.70
2023-04-09T17:22:45.290Z,101276.75
2023-04-09T17:25:19.421Z,101274.15
2023-04-09T17:27:53.181Z,101272.82
2023-04-09T17:30:40.250Z,101280.55
2023-04-09T17:33:17.364Z,101285.65
2023-04-09T17:36:04.053Z,101287.98
2023-04-09T17:38:44.136Z,101288.73
2023-04-09T17:41:19.321Z,101289.98
2023-04-09T17:43:57.043Z,101291.55
2023-04-09T17:46:34.888Z,101293.50
2023-04-09T17:49:10.623Z,101293.66
2023-04-09T17:51:44.294Z,101301.45
2023-04-09T17:54:16.884Z,101302.27
2023-04-09T17:56:49.833Z,101301.05
2023-04-09T17:59:20.960Z,101303.45
2023-04-09T18:02:09.664Z,101303.64
2023-04-09T18:04:54.124Z,101307.56
2023-04-09T18:07:52.161Z,101312.45
2023-04-09T18:10:34.177Z,101315.11
2023-04-09T18:13:10.786Z,101319.79
2023-04-09T18:15:51.451Z,101320.14
2023-04-09T18:18:39.033Z,101322.23
2023-04-09T18:22:21.933Z,101327.86
2023-04-09T18:26:14.264Z,101327.16
2023-04-09T18:29:33.656Z,101329.21
2023-04-09T18:32:26.035Z,101327.15
2023-04-09T18:35:56.753Z,101328.55
2023-04-09T18:38:43.667Z,101332.95
2023-04-09T18:42:28.458Z,101337.98
2023-04-09T18:45:23.960Z,101340.51
2023-04-09T18:48:07.462Z,101346.04
2023-04-09T18:51:41.691Z,101344.27
2023-04-09T18:54:39.825Z,101350.17
2023-04-09T19:01:21.008Z,101350.33
2023-04-09T19:09:40.730Z,101343.82
2023-04-09T19:12:24.327Z,101345.38
2023-04-09T19:14:54.433Z,101343.52
2023-04-09T19:17:33.664Z,101344.14
2023-04-09T19:20:20.039Z,101346.65
2023-04-09T19:32:13.343Z,101353.59
2023-04-09T20:13:14.984Z,101358.04
2023-04-09T20:20:46.982Z,101362.83
2023-04-09T20:24:00.897Z,101361.69
2023-04-09T20:26:42.182Z,101366.20
2023-04-09T20:29:23.656Z,101368.07
2023-04-09T20:32:41.679Z,101360.73
2023-04-09T20:35:14.990Z,101358.84
2023-04-09T20:38:09.142Z,101358.50
2023-04-09T20:40:48.683Z,101362.67
2023-04-09T20:43:39.805Z,101361.84
2023-04-09T20:46:33.983Z,101361.34
2023-04-09T20:49:33.800Z,101359.98
2023-04-09T20:52:32.961Z,101358.66
2023-04-09T20:55:16.042Z,101352.16
2023-04-09T20:58:14.879Z,101355.36
2023-04-09T21:01:24.053Z,101362.63
2023-04-09T21:04:25.280Z,101367.11
2023-04-09T21:07:15.968Z,101368.63
2023-04-09T21:10:02.549Z,101368.86
2023-04-09T21:12:57.567Z,101368.05
2023-04-09T21:15:42.333Z,101365.34
2023-04-09T21:18:22.599Z,101363.17
2023-04-09T21:20:54.184Z,101360.80
2023-04-09T21:23:25.484Z,101361.54
2023-04-09T21:26:00.570Z,101361.41
2023-04-09T21:28:34.327Z,101359.60
2023-04-09T21:31:12.427Z,101365.38
2023-04-09T21:35:18.717Z,101360.08
2023-04-09T21:38:39.896Z,101359.86
2023-04-09T21:41:10.811Z,101358.70
2023-04-09T21:43:44.842Z,101364.42
2023-04-09T21:46:17.988Z,101366.90
2023-04-09T21:49:16.389Z,101369.39
2023-04-09T21:51:47.652Z,101372.95
2023-04-09T21:54:21.254Z,101373.38
2023-04-09T21:56:51.341Z,101376.14
2023-04-09T21:59:37.702Z,101371.16
2023-04-09T22:02:09.312Z,101367.94
2023-04-09T22:04:45.468Z,101365.21
2023-04-09T22:07:18.677Z,101363.52
2023-04-09T22:09:55.792Z,101368.23
2023-04-09T22:12:28.647Z,101368.30
2023-04-09T22:15:11.364Z,101368.86
2023-04-09T22:17:51.626Z,101365.29
2023-04-09T22:20:23.534Z,101368.45
2023-04-09T22:23:08.952Z,101362.77
2023-04-09T22:25:42.549Z,101361.63
2023-04-09T22:28:16.045Z,101361.48
2023-04-09T22:30:51.006Z,101362.91
2023-04-09T22:33:26.991Z,101360.70
2023-04-09T22:36:03.469Z,101359.37
2023-04-09T22:38:50.439Z,101358.55
2023-04-09T22:41:23.883Z,101358.42
2023-04-09T22:43:58.605Z,101356.92
2023-04-09T22:46:41.669Z,101363.36
2023-04-09T22:49:14.913Z,101365.98
2023-04-09T22:51:48.700Z,101368.10
2023-04-09T22:54:30.525Z,101366.26
2023-04-09T22:57:11.409Z,101367.84
2023-04-09T22:59:45.616Z,101364.75
2023-04-09T23:02:25.772Z,101360.61
2023-04-09T23:05:13.020Z,101358.55
2023-04-09T23:07:58.547Z,101364.13
2023-04-09T23:10:42.554Z,101362.63
2023-04-09T23:13:21.210Z,101360.59
2023-04-09T23:16:00.273Z,101359.77
2023-04-09T23:18:39.182Z,101367.73
2023-04-09T23:21:21.260Z,101365.49
2023-04-09T23:24:00.369Z,101365.33
2023-04-09T23:26:31.217Z,101366.19
2023-04-09T23:29:03.902Z,101363.08
2023-04-09T23:31:38.988Z,101359.27
2023-04-09T23:34:12.334Z,101361.33
2023-04-09T23:36:42.399Z,101359.75
2023-04-09T23:39:23.653Z,101356.96
2023-04-09T23:41:59.695Z,101349.35
2023-04-09T23:44:33.844Z,101350.38
2023-04-09T23:47:06.960Z,101347.79
2023-04-09T23:49:40.281Z,101343.45
2023-04-09T23:52:17.042Z,101339.10
2023-04-09T23:55:07.797Z,101339.80
2023-04-09T23:57:45.615Z,101341.70
